Terminal Aerodrome Forecast
Issued by NWS

Current Version | Previous Version | Text Only | Print | Product List | Glossary Off
Versions: 1 2 3 4 5 6 7 8 9 10 11 12 13 14 15 16 17 18 19 20 21

000
FTUS41 KRNK 192102 AAA
TAFLWB
TAF AMD
KLWB 192102Z 1921/2018 VRB04KT P6SM SCT015 OVC025
      TEMPO 1921/1923 OVC015
     FM200200 VRB03KT P6SM SCT025 BKN040
     FM200600 00000KT P6SM SCT040
     FM201300 00000KT P6SM SCT200=

USA.gov is the U.S. government's official web portal to all federal, state and local government web resources and services.